createdAt,value
2023-02-17T00:01:33.891Z,40.47
2023-02-17T00:04:04.526Z,40.47
2023-02-17T00:06:35.385Z,41.14
2023-02-17T00:09:08.444Z,40.99
2023-02-17T00:11:41.776Z,41.27
2023-02-17T00:14:15.018Z,41.27
2023-02-17T00:16:49.628Z,40.45
2023-02-17T00:19:25.616Z,42.33
2023-02-17T00:22:02.563Z,41.35
2023-02-17T00:24:36.015Z,41.33
2023-02-17T00:27:12.924Z,41.93
2023-02-17T00:29:46.729Z,41.59
2023-02-17T00:32:21.069Z,40.42
2023-02-17T00:34:56.996Z,41.00
2023-02-17T00:37:27.988Z,41.92
2023-02-17T00:40:00.923Z,40.87
2023-02-17T00:42:36.142Z,41.34
2023-02-17T00:45:09.875Z,41.52
2023-02-17T00:47:43.657Z,41.47
2023-02-17T00:50:15.848Z,41.05
2023-02-17T00:52:48.869Z,41.26
2023-02-17T00:55:22.143Z,41.62
2023-02-17T00:57:56.205Z,40.50
2023-02-17T01:00:29.018Z,39.95
2023-02-17T01:03:01.139Z,41.90
2023-02-17T01:05:34.575Z,42.16
2023-02-17T01:08:06.961Z,44.45
2023-02-17T01:10:44.948Z,43.60
2023-02-17T01:13:21.011Z,43.57
2023-02-17T01:15:55.323Z,42.19
2023-02-17T01:18:33.301Z,42.29
2023-02-17T01:21:04.745Z,43.93
2023-02-17T01:23:36.614Z,45.37
2023-02-17T01:26:20.053Z,43.78
2023-02-17T01:28:53.086Z,45.07
2023-02-17T01:31:28.426Z,44.17
2023-02-17T01:34:06.654Z,44.73
2023-02-17T01:36:42.802Z,43.74
2023-02-17T01:39:17.762Z,44.79
2023-02-17T01:41:49.502Z,45.66
2023-02-17T01:44:24.616Z,45.72
2023-02-17T01:46:59.258Z,43.49
2023-02-17T01:49:37.343Z,43.62
2023-02-17T01:52:11.813Z,43.35
2023-02-17T01:54:51.616Z,44.84
2023-02-17T01:57:27.422Z,42.81
2023-02-17T02:00:02.019Z,43.37
2023-02-17T02:02:34.335Z,42.93
2023-02-17T02:05:16.361Z,42.66
2023-02-17T02:07:51.111Z,42.18
2023-02-17T02:10:24.608Z,42.68
2023-02-17T02:12:59.397Z,42.25
2023-02-17T02:15:34.121Z,44.20
2023-02-17T02:18:10.620Z,42.81
2023-02-17T02:20:56.172Z,43.90
2023-02-17T02:23:34.072Z,42.89
2023-02-17T02:26:25.208Z,41.77
2023-02-17T02:29:08.183Z,41.21
2023-02-17T02:31:48.697Z,41.04
2023-02-17T02:34:25.807Z,43.23
2023-02-17T02:37:09.432Z,40.84
2023-02-17T02:39:43.286Z,42.10
2023-02-17T02:42:20.181Z,40.48
2023-02-17T02:44:52.373Z,41.38
2023-02-17T02:47:43.446Z,42.31
2023-02-17T02:50:17.923Z,40.52
2023-02-17T02:52:51.203Z,41.53
2023-02-17T02:55:46.793Z,42.29
2023-02-17T02:58:22.867Z,41.19
2023-02-17T03:01:06.062Z,40.08
2023-02-17T03:03:42.255Z,40.76
2023-02-17T03:06:26.195Z,41.02
2023-02-17T03:09:05.113Z,41.95
2023-02-17T03:11:38.099Z,40.63
2023-02-17T03:14:13.983Z,40.69
2023-02-17T03:16:48.333Z,40.79
2023-02-17T03:19:22.145Z,40.34
2023-02-17T03:22:06.908Z,41.18
2023-02-17T03:24:37.814Z,40.73
2023-02-17T03:27:08.311Z,40.41
2023-02-17T03:29:39.488Z,40.28
2023-02-17T03:32:10.509Z,39.75
2023-02-17T03:34:41.939Z,40.03
2023-02-17T03:37:12.441Z,39.97
2023-02-17T03:39:43.231Z,42.22
2023-02-17T03:42:14.353Z,41.96
2023-02-17T03:44:44.925Z,42.88
2023-02-17T03:47:15.575Z,42.20
2023-02-17T03:49:46.061Z,43.12
2023-02-17T03:52:16.854Z,41.55
2023-02-17T03:54:47.429Z,42.15
2023-02-17T03:57:17.983Z,41.75
2023-02-17T03:59:48.634Z,42.66
2023-02-17T04:02:19.203Z,42.67
2023-02-17T04:04:49.953Z,42.82
2023-02-17T04:07:20.515Z,42.86
2023-02-17T04:09:51.075Z,41.69
2023-02-17T04:12:21.611Z,41.85
2023-02-17T04:14:52.117Z,43.38
2023-02-17T04:17:22.633Z,42.01
2023-02-17T04:19:53.886Z,41.23
2023-02-17T04:22:24.736Z,42.35
2023-02-17T04:24:55.232Z,42.19
2023-02-17T04:27:25.780Z,43.00
2023-02-17T04:29:56.338Z,40.99
2023-02-17T04:32:27.287Z,41.87
2023-02-17T04:34:57.845Z,41.54
2023-02-17T04:37:28.397Z,43.35
2023-02-17T04:40:00.181Z,45.02
2023-02-17T04:42:30.716Z,44.20
2023-02-17T04:45:01.316Z,43.24
2023-02-17T04:50:01.516Z,42.88
2023-02-17T04:52:32.038Z,43.55
2023-02-17T04:55:02.566Z,42.24
2023-02-17T04:57:33.182Z,43.62
2023-02-17T05:00:05.054Z,42.93
2023-02-17T05:02:35.581Z,43.57
2023-02-17T05:05:06.235Z,44.77
2023-02-17T05:07:36.885Z,44.41
2023-02-17T05:10:08.008Z,43.73
2023-02-17T05:12:40.493Z,43.17
2023-02-17T05:15:12.375Z,44.10
2023-02-17T05:17:42.930Z,41.82
2023-02-17T05:20:13.868Z,43.94
2023-02-17T05:22:44.511Z,42.48
2023-02-17T05:25:15.477Z,42.04
2023-02-17T05:27:47.709Z,42.70
2023-02-17T05:30:19.130Z,42.84
2023-02-17T05:32:49.975Z,42.89
2023-02-17T05:35:20.681Z,44.61
2023-02-17T05:37:53.062Z,43.62
2023-02-17T05:40:23.676Z,46.17
2023-02-17T05:42:54.344Z,46.26
2023-02-17T05:45:24.933Z,45.10
2023-02-17T05:47:56.648Z,46.38
2023-02-17T05:50:28.556Z,44.95
2023-02-17T05:52:59.231Z,46.58
2023-02-17T05:55:31.502Z,46.58
2023-02-17T05:58:02.143Z,44.50
2023-02-17T06:00:32.969Z,45.70
2023-02-17T06:03:03.597Z,44.01
2023-02-17T06:05:34.294Z,44.64
2023-02-17T06:08:04.860Z,46.63
2023-02-17T06:10:37.900Z,43.25
2023-02-17T06:13:11.193Z,43.54
2023-02-17T06:15:42.863Z,43.27
2023-02-17T06:18:14.526Z,45.14
2023-02-17T06:20:47.649Z,45.15
2023-02-17T06:23:24.830Z,44.73
2023-02-17T06:26:00.441Z,43.13
2023-02-17T06:28:35.056Z,45.28
2023-02-17T06:31:16.901Z,44.85
2023-02-17T06:33:48.747Z,46.46
2023-02-17T06:36:22.506Z,46.17
2023-02-17T06:39:02.307Z,45.66
2023-02-17T06:41:33.975Z,48.96
2023-02-17T06:44:07.091Z,46.68
2023-02-17T06:46:41.366Z,47.18
2023-02-17T06:49:15.093Z,46.24
2023-02-17T06:51:47.733Z,47.59
2023-02-17T06:54:20.418Z,45.87
2023-02-17T06:56:52.478Z,47.14
2023-02-17T06:59:24.560Z,47.82
2023-02-17T07:01:57.040Z,47.18
2023-02-17T07:04:28.695Z,46.27
2023-02-17T07:07:03.254Z,46.00
2023-02-17T07:13:06.027Z,45.57
2023-02-17T07:15:44.592Z,45.08
2023-02-17T07:18:22.975Z,48.28
2023-02-17T07:20:56.929Z,48.15
2023-02-17T07:23:33.766Z,46.54
2023-02-17T07:26:12.645Z,50.62
2023-02-17T07:29:00.963Z,51.35
2023-02-17T07:31:38.407Z,51.94
2023-02-17T07:34:11.320Z,53.78
2023-02-17T07:36:44.915Z,50.85
2023-02-17T07:39:18.521Z,55.96
2023-02-17T07:41:51.662Z,53.59
2023-02-17T07:44:25.068Z,54.95
2023-02-17T07:46:57.825Z,52.25
2023-02-17T07:49:30.556Z,53.55
2023-02-17T07:52:08.004Z,51.86
2023-02-17T07:54:44.716Z,51.19
2023-02-17T07:57:18.013Z,53.85
2023-02-17T07:59:50.534Z,53.84
2023-02-17T08:02:23.726Z,54.23
2023-02-17T08:04:56.094Z,50.57
2023-02-17T08:07:29.791Z,49.08
2023-02-17T08:10:16.763Z,50.47
2023-02-17T08:13:12.788Z,53.60
2023-02-17T08:15:45.261Z,58.81
2023-02-17T08:18:19.835Z,58.11
2023-02-17T08:20:53.254Z,60.27
2023-02-17T08:23:26.218Z,57.58
2023-02-17T08:25:59.798Z,54.79
2023-02-17T08:28:34.892Z,56.35
2023-02-17T08:31:12.144Z,56.66
2023-02-17T08:33:57.752Z,55.32
2023-02-17T08:36:48.480Z,63.71
2023-02-17T08:39:21.872Z,58.69
2023-02-17T08:41:59.288Z,51.77
2023-02-17T08:44:39.344Z,50.98
2023-02-17T08:47:13.952Z,50.12
2023-02-17T08:49:46.616Z,56.43
2023-02-17T08:52:19.611Z,54.34
2023-02-17T08:54:59.498Z,54.50
2023-02-17T08:57:33.495Z,54.54
2023-02-17T09:00:10.836Z,57.37
2023-02-17T09:02:46.231Z,59.62
2023-02-17T09:05:22.021Z,58.03
2023-02-17T09:07:55.212Z,59.03
2023-02-17T09:10:31.611Z,55.27
2023-02-17T09:13:02.951Z,56.32
2023-02-17T09:15:41.510Z,65.77
2023-02-17T09:18:14.215Z,58.76
2023-02-17T09:20:50.716Z,54.10
2023-02-17T09:23:23.902Z,56.12
2023-02-17T09:26:12.968Z,62.26
2023-02-17T09:28:50.394Z,60.29
2023-02-17T09:31:24.961Z,63.67
2023-02-17T09:33:59.612Z,63.52
2023-02-17T09:36:40.335Z,60.29
2023-02-17T09:39:16.567Z,61.93
2023-02-17T09:41:52.276Z,62.70
2023-02-17T09:44:32.636Z,69.32
2023-02-17T09:47:18.598Z,66.04
2023-02-17T09:50:00.471Z,74.54
2023-02-17T09:52:52.176Z,56.58
2023-02-17T09:55:36.969Z,66.42
2023-02-17T09:58:31.123Z,61.98
2023-02-17T10:01:10.317Z,67.09
2023-02-17T10:03:55.249Z,68.03
2023-02-17T10:06:34.666Z,59.38
2023-02-17T10:09:18.339Z,63.17
2023-02-17T10:12:06.828Z,60.69
2023-02-17T10:14:53.293Z,60.63
2023-02-17T10:17:35.042Z,64.53
2023-02-17T10:20:12.761Z,57.50
2023-02-17T10:22:48.601Z,54.06
2023-02-17T10:25:23.820Z,57.88
2023-02-17T10:28:13.586Z,56.05
2023-02-17T10:31:00.383Z,65.29
2023-02-17T10:33:41.444Z,67.56
2023-02-17T10:36:54.455Z,57.29
2023-02-17T10:39:40.171Z,59.58
2023-02-17T10:42:42.469Z,58.31
2023-02-17T10:45:48.276Z,65.76
2023-02-17T10:48:32.526Z,58.74
2023-02-17T10:51:19.981Z,59.19
2023-02-17T10:53:56.585Z,57.40
2023-02-17T10:56:47.439Z,59.77
2023-02-17T10:59:39.742Z,61.93
2023-02-17T11:02:39.200Z,60.31
2023-02-17T11:05:13.128Z,57.61
2023-02-17T11:07:49.780Z,65.69
2023-02-17T11:10:25.678Z,58.95
2023-02-17T11:12:58.964Z,59.46
2023-02-17T11:15:34.817Z,58.63
2023-02-17T11:18:11.567Z,63.92
2023-02-17T11:20:44.258Z,61.39
2023-02-17T11:23:23.906Z,61.39
2023-02-17T11:26:04.089Z,66.74
2023-02-17T11:28:38.706Z,66.74
2023-02-17T11:31:26.229Z,50.89
2023-02-17T11:33:58.554Z,50.89
2023-02-17T11:36:33.058Z,46.13
2023-02-17T11:39:16.936Z,50.11
2023-02-17T11:41:49.306Z,52.43
2023-02-17T11:44:28.899Z,50.37
2023-02-17T11:47:06.138Z,63.21
2023-02-17T11:50:08.297Z,63.79
2023-02-17T11:53:03.889Z,67.65
2023-02-17T11:55:46.632Z,68.64
2023-02-17T11:58:27.419Z,63.27
2023-02-17T12:01:13.280Z,57.40
2023-02-17T12:03:45.265Z,59.07
2023-02-17T12:06:42.808Z,62.37
2023-02-17T12:09:43.759Z,55.78
2023-02-17T12:12:21.816Z,55.78
2023-02-17T12:15:06.228Z,69.08
2023-02-17T12:17:53.834Z,63.00
2023-02-17T12:20:41.264Z,67.26
2023-02-17T12:23:26.150Z,79.99
2023-02-17T12:26:14.410Z,82.80
2023-02-17T12:29:10.539Z,62.18
2023-02-17T12:32:19.646Z,58.06
2023-02-17T12:35:26.462Z,58.10
2023-02-17T12:38:00.687Z,57.91
2023-02-17T12:40:40.916Z,67.41
2023-02-17T12:43:29.390Z,65.99
2023-02-17T12:46:05.607Z,62.00
2023-02-17T12:49:16.175Z,64.14
2023-02-17T12:51:56.013Z,64.49
2023-02-17T12:54:32.271Z,60.69
2023-02-17T12:57:14.110Z,43.89
2023-02-17T12:59:54.768Z,49.08
2023-02-17T13:02:28.784Z,53.37
2023-02-17T13:05:04.702Z,54.13
2023-02-17T13:07:39.749Z,54.13
2023-02-17T13:10:31.986Z,51.70
2023-02-17T13:13:08.482Z,54.85
2023-02-17T13:15:44.149Z,53.67
2023-02-17T13:18:38.584Z,53.67
2023-02-17T13:21:38.024Z,56.99
2023-02-17T13:24:18.530Z,56.99
2023-02-17T13:26:50.677Z,60.07
2023-02-17T13:29:30.216Z,60.07
2023-02-17T13:32:04.111Z,52.46
2023-02-17T13:34:39.452Z,61.40
2023-02-17T13:37:36.398Z,61.40
2023-02-17T13:40:22.303Z,54.35
2023-02-17T13:43:01.879Z,54.35
2023-02-17T13:45:39.219Z,54.60
2023-02-17T13:48:18.686Z,54.60
2023-02-17T13:50:53.176Z,55.79
2023-02-17T13:53:46.816Z,61.08
2023-02-17T13:56:32.821Z,54.14
2023-02-17T13:59:19.760Z,57.82
2023-02-17T14:01:55.586Z,55.08
2023-02-17T14:04:34.482Z,59.38
2023-02-17T14:07:10.139Z,58.19
2023-02-17T14:09:49.259Z,58.77
2023-02-17T14:12:26.231Z,56.79
2023-02-17T14:14:57.242Z,56.06
2023-02-17T14:17:35.422Z,56.34
2023-02-17T14:20:17.844Z,68.46
2023-02-17T14:23:03.539Z,55.34
2023-02-17T14:25:33.328Z,57.41
2023-02-17T14:28:05.045Z,56.66
2023-02-17T14:30:39.435Z,68.64
2023-02-17T14:33:23.112Z,68.64
2023-02-17T14:36:00.650Z,55.00
2023-02-17T14:38:46.739Z,59.29
2023-02-17T14:41:19.812Z,65.31
2023-02-17T14:43:53.371Z,59.69
2023-02-17T14:46:26.436Z,59.73
2023-02-17T14:49:01.370Z,65.19
2023-02-17T14:51:41.272Z,64.34
2023-02-17T14:54:19.932Z,66.86
2023-02-17T14:57:03.180Z,64.37
2023-02-17T14:59:38.156Z,63.31
2023-02-17T15:02:24.031Z,73.12
2023-02-17T15:05:01.984Z,69.84
2023-02-17T15:07:36.392Z,67.70
2023-02-17T15:10:20.985Z,56.21
2023-02-17T15:12:55.497Z,68.03
2023-02-17T15:15:28.997Z,66.50
2023-02-17T15:18:05.095Z,60.13
2023-02-17T15:20:37.537Z,66.06
2023-02-17T15:23:16.661Z,70.54
2023-02-17T15:25:48.974Z,76.75
2023-02-17T15:28:21.482Z,78.85
2023-02-17T15:30:57.873Z,74.32
2023-02-17T15:33:29.159Z,78.37
2023-02-17T15:36:02.406Z,69.97
2023-02-17T15:38:32.972Z,67.91
2023-02-17T15:41:05.916Z,55.84
2023-02-17T15:43:37.623Z,65.94
2023-02-17T15:46:19.168Z,63.59
2023-02-17T15:48:50.139Z,64.07
2023-02-17T15:51:21.673Z,74.72
2023-02-17T15:53:53.864Z,95.06
2023-02-17T15:56:27.490Z,83.55
2023-02-17T15:59:00.563Z,83.55
2023-02-17T16:01:34.142Z,76.75
2023-02-17T16:04:05.093Z,81.19
2023-02-17T16:06:35.596Z,71.55
2023-02-17T16:09:06.532Z,83.23
2023-02-17T16:11:39.702Z,91.77
2023-02-17T16:14:12.878Z,73.71
2023-02-17T16:16:43.609Z,69.29
2023-02-17T16:19:14.487Z,80.96
2023-02-17T16:21:44.901Z,85.72
2023-02-17T16:24:15.523Z,77.00
2023-02-17T16:26:46.391Z,73.78
2023-02-17T16:29:22.559Z,73.54
2023-02-17T16:31:53.191Z,68.08
2023-02-17T16:34:26.336Z,67.52
2023-02-17T16:36:59.927Z,69.75
2023-02-17T16:39:30.734Z,77.17
2023-02-17T16:42:01.241Z,92.02
2023-02-17T16:44:32.047Z,74.75
2023-02-17T16:47:02.954Z,79.08
2023-02-17T16:49:41.425Z,93.55
2023-02-17T16:52:27.102Z,35.35
2023-02-17T16:54:57.746Z,41.42
2023-02-17T16:57:29.839Z,52.22
2023-02-17T17:00:00.587Z,77.85
2023-02-17T17:02:31.371Z,74.64
2023-02-17T17:05:01.980Z,68.54
2023-02-17T17:07:33.401Z,60.33
2023-02-17T17:10:16.372Z,64.34
2023-02-17T17:12:38.118Z,64.72
2023-02-17T17:15:10.799Z,65.11
2023-02-17T17:17:44.613Z,63.86
2023-02-17T17:20:21.236Z,64.62
2023-02-17T17:22:51.819Z,72.88
2023-02-17T17:25:22.381Z,72.18
2023-02-17T17:27:52.914Z,79.99
2023-02-17T17:30:27.239Z,72.42
2023-02-17T17:32:57.718Z,73.13
2023-02-17T17:35:29.307Z,76.95
2023-02-17T17:37:59.907Z,81.62
2023-02-17T17:40:33.896Z,84.00
2023-02-17T17:43:04.525Z,72.13
2023-02-17T17:45:35.266Z,75.82
2023-02-17T17:48:06.670Z,77.74
2023-02-17T17:50:37.342Z,83.80
2023-02-17T17:53:08.026Z,94.78
2023-02-17T17:55:40.873Z,86.72
2023-02-17T17:58:11.544Z,96.02
2023-02-17T18:00:42.121Z,78.95
2023-02-17T18:03:13.842Z,74.70
2023-02-17T18:05:45.782Z,65.44
2023-02-17T18:08:17.004Z,69.78
2023-02-17T18:10:47.874Z,68.01
2023-02-17T18:13:18.453Z,80.55
2023-02-17T18:15:49.508Z,73.12
2023-02-17T18:18:24.061Z,65.05
2023-02-17T18:20:54.566Z,77.78
2023-02-17T18:23:26.249Z,73.83
2023-02-17T18:25:58.012Z,68.35
2023-02-17T18:28:28.985Z,75.89
2023-02-17T18:30:59.632Z,80.88
2023-02-17T18:33:30.190Z,76.36
2023-02-17T18:36:10.399Z,72.93
2023-02-17T18:38:40.935Z,75.66
2023-02-17T18:41:21.038Z,71.33
2023-02-17T18:43:52.322Z,68.65
2023-02-17T18:46:25.177Z,77.40
2023-02-17T18:48:56.716Z,71.22
2023-02-17T18:51:27.984Z,75.49
2023-02-17T18:54:00.836Z,70.69
2023-02-17T18:56:34.129Z,70.21
2023-02-17T18:59:04.597Z,69.16
2023-02-17T19:01:38.786Z,70.56
2023-02-17T19:04:10.044Z,75.01
2023-02-17T19:06:42.730Z,69.54
2023-02-17T19:09:13.224Z,70.84
2023-02-17T19:11:43.766Z,64.43
2023-02-17T19:14:14.316Z,64.28
2023-02-17T19:16:46.924Z,64.23
2023-02-17T19:19:17.577Z,65.37
2023-02-17T19:21:48.663Z,68.87
2023-02-17T19:24:19.144Z,61.96
2023-02-17T19:26:50.951Z,62.07
2023-02-17T19:29:22.856Z,63.43
2023-02-17T19:31:53.697Z,60.65
2023-02-17T19:34:24.546Z,64.67
2023-02-17T19:36:55.130Z,60.33
2023-02-17T19:39:25.707Z,60.12
2023-02-17T19:41:56.352Z,60.30
2023-02-17T19:44:26.823Z,55.32
2023-02-17T19:46:57.659Z,58.46
2023-02-17T19:49:28.245Z,56.80
2023-02-17T19:51:58.764Z,56.71
2023-02-17T19:54:29.643Z,57.96
2023-02-17T19:57:01.276Z,55.77
2023-02-17T19:59:34.045Z,54.50
2023-02-17T20:02:04.650Z,53.91
2023-02-17T20:04:35.379Z,56.44
2023-02-17T20:07:05.969Z,63.09
2023-02-17T20:09:37.621Z,59.80
2023-02-17T20:12:09.021Z,56.20
2023-02-17T20:14:39.604Z,54.75
2023-02-17T20:17:11.723Z,52.68
2023-02-17T20:19:43.410Z,53.71
2023-02-17T20:22:14.085Z,53.84
2023-02-17T20:24:47.598Z,50.73
2023-02-17T20:27:28.056Z,50.51
2023-02-17T20:30:06.741Z,47.77
2023-02-17T20:32:37.968Z,48.31
2023-02-17T20:35:12.023Z,45.88
2023-02-17T20:37:42.684Z,45.73
2023-02-17T20:40:13.340Z,44.06
2023-02-17T20:42:45.095Z,43.07
2023-02-17T20:45:15.622Z,41.38
2023-02-17T20:47:46.550Z,41.21
2023-02-17T20:50:20.337Z,39.86
2023-02-17T20:52:51.296Z,39.62
2023-02-17T20:55:23.022Z,38.91
2023-02-17T20:57:54.924Z,38.75
2023-02-17T21:00:27.961Z,39.38
2023-02-17T21:02:59.177Z,39.26
2023-02-17T21:05:33.801Z,38.63
2023-02-17T21:08:08.022Z,39.15
2023-02-17T21:10:41.264Z,40.16
2023-02-17T21:13:12.501Z,39.22
2023-02-17T21:15:47.496Z,40.21
2023-02-17T21:18:20.933Z,41.42
2023-02-17T22:00:59.354Z,58.23
2023-02-17T22:03:30.041Z,53.22
2023-02-17T22:06:00.674Z,49.71
2023-02-17T22:08:34.216Z,50.05
2023-02-17T22:11:05.169Z,48.17
2023-02-17T22:13:35.682Z,47.24
2023-02-17T22:16:06.843Z,47.98
2023-02-17T22:18:37.616Z,47.89
2023-02-17T22:21:15.319Z,50.26
2023-02-17T22:23:46.295Z,48.90
2023-02-17T22:26:22.667Z,48.57
2023-02-17T22:28:54.412Z,49.80
2023-02-17T22:31:27.569Z,49.91
2023-02-17T22:33:59.929Z,50.02
2023-02-17T22:36:36.258Z,47.95
2023-02-17T22:39:09.043Z,46.25
2023-02-17T22:41:41.041Z,47.87
2023-02-17T22:44:11.662Z,48.57
2023-02-17T22:46:42.185Z,48.74
2023-02-17T22:49:13.853Z,48.86
2023-02-17T22:51:44.335Z,50.10
2023-02-17T22:54:14.857Z,48.55
2023-02-17T22:56:45.386Z,46.50
2023-02-17T22:59:15.973Z,48.06
2023-02-17T23:01:46.873Z,46.82
2023-02-17T23:04:18.330Z,46.19
2023-02-17T23:06:49.904Z,46.31
2023-02-17T23:09:21.550Z,47.91
2023-02-17T23:11:54.351Z,45.74
2023-02-17T23:14:33.979Z,44.68
2023-02-17T23:17:07.329Z,46.95
2023-02-17T23:19:41.021Z,46.50
2023-02-17T23:22:16.826Z,47.11
2023-02-17T23:24:49.005Z,46.57
2023-02-17T23:27:19.636Z,46.57
2023-02-17T23:29:50.253Z,46.29
2023-02-17T23:32:20.778Z,46.29
2023-02-17T23:34:51.800Z,44.66
2023-02-17T23:37:23.695Z,44.65
2023-02-17T23:39:54.317Z,45.78
2023-02-17T23:42:24.949Z,46.20
2023-02-17T23:44:56.701Z,46.20
2023-02-17T23:47:27.178Z,46.50
2023-02-17T23:49:58.881Z,44.98
2023-02-17T23:52:29.482Z,45.77
2023-02-17T23:55:00.086Z,44.66
2023-02-17T23:57:30.570Z,46.92
